Terminal Aerodrome Forecast
Issued by NWS

Home | Current Version | Previous Version | Text Only | Print | Product List | Glossary On
Versions: 1 2 3 4 5 6 7 8 9 10 11 12 13 14 15 16 17 18 19 20 21 22 23 24 25 26 27 28 29
000
FTUS43 KDLH 191700
TAFHIB
TAF
KHIB 191729Z 1918/2018 35007KT P6SM VCSH OVC020
      TEMPO 1918/1920 4SM -SHRA BR
     FM192000 36005KT P6SM VCSH SCT025 BKN035
     FM200500 00000KT 5SM BR SCT004 OVC015
     FM200800 00000KT 1/2SM FG OVC002
     FM201400 VRB02KT 2SM BR OVC006
     FM201700 13003KT P6SM BKN015=

USA.gov is the U.S. government's official web portal to all federal, state and local government web resources and services.